Welcome to the Virtual
Houston Air Route Traffic Control Center

Login

 
 

Forgot your password?

Controllers Online
Callsign Controller
Loading...
Updated --
Airport Information
ICAO Rules Wind Baro
Loading...
Updated --
Full Weather Information
Top Controllers - Feb '17
Controller Online
En-Route / Oceanic
1 Brandon Barrett (I1) 11:59
2 Reuben Prevost (I1) 09:08
3 Cole Connelly (C1) 08:40
4 Alex Lehman (C1) 05:35
5 Dylan Pierce (I1) 04:52
Terminal RADAR
1 Chase Parisher (S3) 13:59
2 Matthew Kosmoski (C1) 12:58
3 Billy Bowers (C1) 09:10
4 Jason Diket (SUP) 06:19
5 Reuben Prevost (I1) 06:16
C/G/L Control
1 Evan Bradley (S1) 977824:37
2 Robert Heilman (S2) 45:38
3 Jordan Robinson (S1) 42:42
4 Ryan Barnes (S1) 34:56
5 Tanner Jackson (S2) 11:36
Full Controller Statistics
Flight Level Radio
VATSIM
VATUSA

Weather


KAUSKAUS 260453Z 00000KT 10SM CLR 04/01 A3008 RMK AO2 SLP188 T00440006
KBTRKBTR 260453Z 03004KT 10SM CLR 07/03 A3013 RMK AO2 SLP202 T00720028
KCRPKCRP 260451Z 07005KT 10SM FEW025 14/12 A3005 RMK AO2 SLP176 T01440122
KGPTKGPT 260453Z AUTO 01007KT 10SM CLR 11/M01 A3013 RMK AO2 SLP201 T01111006 $
KHOUKHOU 260453Z 00000KT 10SM FEW045 SCT250 12/04 A3008 RMK AO2 SLP190 T01220039
KIAHKIAH 260453Z 06007KT 10SM CLR 10/03 A3009 RMK AO2 SLP189 T01000028
KLCHKLCH 260453Z 06004KT 10SM CLR 09/03 A3012 RMK AO2 SLP205 T00940033
KMOBKMOB 260456Z 34008KT 10SM CLR 10/M02 A3014 RMK AO2 SLP204 T01001017
KMSYKMSY 260453Z 03008KT 10SM CLR 14/02 A3012 RMK AO2 SLP203 T01440022
KSATKSAT 260451Z 07003KT 10SM FEW250 09/M01 A3007 RMK AO2 SLP174 T00941006